createdAt,value
2023-04-12T00:01:04.402Z,93.10
2023-04-12T00:03:34.349Z,93.10
2023-04-12T00:06:03.244Z,93.00
2023-04-12T00:08:33.330Z,93.00
2023-04-12T00:11:01.072Z,92.90
2023-04-12T00:13:28.782Z,92.90
2023-04-12T00:15:56.055Z,93.00
2023-04-12T00:18:25.244Z,93.00
2023-04-12T00:20:53.149Z,93.00
2023-04-12T00:23:20.509Z,93.00
2023-04-12T00:25:47.620Z,93.00
2023-04-12T00:28:16.020Z,93.00
2023-04-12T00:30:43.877Z,93.00
2023-04-12T00:33:10.821Z,93.00
2023-04-12T00:35:37.741Z,93.00
2023-04-12T00:38:06.228Z,93.00
2023-04-12T00:40:33.267Z,93.00
2023-04-12T00:43:00.978Z,93.00
2023-04-12T00:45:27.944Z,93.00
2023-04-12T00:47:56.432Z,92.90
2023-04-12T00:50:24.044Z,93.00
2023-04-12T00:52:52.021Z,93.10
2023-04-12T00:55:19.013Z,93.20
2023-04-12T00:57:46.802Z,93.20
2023-04-12T01:00:14.197Z,93.10
2023-04-12T01:02:47.703Z,93.20
2023-04-12T01:05:21.970Z,93.30
2023-04-12T01:08:12.004Z,93.50
2023-04-12T01:10:50.913Z,93.80
2023-04-12T01:13:35.052Z,93.80
2023-04-12T01:16:40.763Z,93.80
2023-04-12T01:20:06.375Z,93.80
2023-04-12T01:23:28.371Z,93.80
2023-04-12T01:26:32.940Z,93.80
2023-04-12T01:29:08.158Z,93.80
2023-04-12T01:31:36.927Z,93.60
2023-04-12T01:34:06.147Z,93.80
2023-04-12T01:36:34.739Z,93.80
2023-04-12T01:39:04.790Z,93.80
2023-04-12T01:41:33.146Z,93.80
2023-04-12T01:44:00.143Z,93.80
2023-04-12T01:46:27.067Z,94.00
2023-04-12T01:48:55.969Z,93.90
2023-04-12T01:51:42.193Z,94.10
2023-04-12T01:54:13.281Z,94.20
2023-04-12T01:56:44.952Z,94.20
2023-04-12T01:59:16.173Z,94.20
2023-04-12T02:01:44.472Z,94.30
2023-04-12T02:04:12.229Z,94.30
2023-04-12T02:06:41.016Z,94.20
2023-04-12T02:09:09.702Z,94.30
2023-04-12T02:11:36.658Z,94.30
2023-04-12T02:14:03.549Z,94.30
2023-04-12T02:16:32.400Z,94.40
2023-04-12T02:19:00.647Z,94.50
2023-04-12T02:21:27.920Z,94.60
2023-04-12T02:23:55.226Z,94.60
2023-04-12T02:26:23.401Z,94.60
2023-04-12T02:28:52.641Z,94.70
2023-04-12T02:31:19.681Z,94.60
2023-04-12T02:33:49.082Z,94.60
2023-04-12T02:36:16.298Z,94.60
2023-04-12T02:38:43.434Z,94.50
2023-04-12T02:41:22.051Z,94.50
2023-04-12T02:43:49.672Z,94.60
2023-04-12T02:46:23.877Z,94.50
2023-04-12T02:48:56.574Z,94.50
2023-04-12T02:51:32.221Z,94.40
2023-04-12T02:54:00.440Z,94.40
2023-04-12T02:56:36.184Z,94.30
2023-04-12T02:59:11.560Z,94.30
2023-04-12T03:01:58.574Z,94.30
2023-04-12T03:04:30.778Z,94.30
2023-04-12T03:07:00.329Z,94.30
2023-04-12T03:09:50.699Z,94.30
2023-04-12T03:12:19.911Z,94.20
2023-04-12T03:15:08.044Z,94.20
2023-04-12T03:17:35.044Z,94.30
2023-04-12T03:20:10.134Z,94.30
2023-04-12T03:22:40.433Z,94.40
2023-04-12T03:25:10.235Z,94.50
2023-04-12T03:27:41.543Z,94.50
2023-04-12T03:30:10.381Z,94.50
2023-04-12T03:32:42.669Z,94.50
2023-04-12T03:35:11.590Z,94.50
2023-04-12T03:37:43.196Z,94.60
2023-04-12T03:40:12.020Z,94.70
2023-04-12T03:42:42.825Z,94.70
2023-04-12T03:45:14.758Z,94.70
2023-04-12T03:47:46.250Z,94.70
2023-04-12T03:50:14.579Z,94.70
2023-04-12T03:52:47.695Z,94.60
2023-04-12T03:55:18.274Z,94.60
2023-04-12T03:57:46.901Z,94.70
2023-04-12T04:00:14.971Z,94.70
2023-04-12T04:03:14.330Z,94.70
2023-04-12T04:05:45.829Z,94.80
2023-04-12T04:08:14.061Z,94.70
2023-04-12T04:11:01.365Z,94.60
2023-04-12T04:13:34.969Z,94.70
2023-04-12T04:16:07.360Z,94.70
2023-04-12T04:18:35.971Z,94.70
2023-04-12T04:21:03.351Z,94.70
2023-04-12T04:23:39.142Z,94.80
2023-04-12T04:26:10.485Z,94.80
2023-04-12T04:28:44.964Z,94.90
2023-04-12T04:31:17.379Z,95.00
2023-04-12T04:33:47.741Z,95.00
2023-04-12T04:36:15.772Z,95.20
2023-04-12T04:38:48.174Z,95.20
2023-04-12T04:41:26.432Z,95.40
2023-04-12T04:44:00.551Z,95.40
2023-04-12T04:46:32.108Z,95.50
2023-04-12T04:49:00.125Z,95.60
2023-04-12T04:51:27.359Z,95.80
2023-04-12T04:53:56.723Z,95.80
2023-04-12T04:56:25.025Z,95.90
2023-04-12T04:58:54.746Z,95.90
2023-04-12T05:01:28.423Z,95.80
2023-04-12T05:03:57.408Z,95.80
2023-04-12T05:06:27.459Z,95.90
2023-04-12T05:08:56.642Z,95.90
2023-04-12T05:11:23.810Z,95.90
2023-04-12T05:13:51.328Z,96.00
2023-04-12T05:16:18.399Z,96.00
2023-04-12T05:18:46.069Z,96.00
2023-04-12T05:21:13.055Z,96.00
2023-04-12T05:23:46.884Z,96.00
2023-04-12T05:26:14.337Z,96.00
2023-04-12T05:28:45.892Z,96.00
2023-04-12T05:31:13.574Z,96.00
2023-04-12T05:33:40.530Z,96.00
2023-04-12T05:36:07.978Z,96.00
2023-04-12T05:38:34.938Z,96.10
2023-04-12T05:41:05.820Z,96.20
2023-04-12T05:43:33.902Z,96.20
2023-04-12T05:46:02.077Z,96.10
2023-04-12T05:48:30.431Z,96.10
2023-04-12T05:51:02.708Z,96.00
2023-04-12T05:53:32.766Z,96.10
2023-04-12T05:56:02.693Z,96.10
2023-04-12T05:58:30.291Z,96.10
2023-04-12T06:00:57.616Z,96.10
2023-04-12T06:03:25.307Z,96.20
2023-04-12T06:05:54.386Z,96.10
2023-04-12T06:08:21.308Z,96.10
2023-04-12T06:10:48.188Z,96.20
2023-04-12T06:13:15.352Z,96.30
2023-04-12T06:15:43.408Z,96.30
2023-04-12T06:18:12.880Z,96.30
2023-04-12T06:20:40.492Z,96.40
2023-04-12T06:23:07.482Z,96.50
2023-04-12T06:25:35.034Z,96.50
2023-04-12T06:28:02.690Z,96.40
2023-04-12T06:30:30.648Z,96.30
2023-04-12T06:32:57.883Z,96.40
2023-04-12T06:35:25.512Z,96.40
2023-04-12T06:37:52.487Z,96.40
2023-04-12T06:40:19.665Z,96.50
2023-04-12T06:42:46.621Z,96.50
2023-04-12T06:45:21.734Z,96.50
2023-04-12T06:47:48.653Z,96.20
2023-04-12T06:50:15.633Z,96.10
2023-04-12T06:52:42.516Z,95.60
2023-04-12T06:55:09.559Z,95.60
2023-04-12T06:57:36.536Z,95.40
2023-04-12T07:00:04.310Z,95.50
2023-04-12T07:02:31.287Z,95.40
2023-04-12T07:04:58.290Z,95.30
2023-04-12T07:07:25.182Z,95.30
2023-04-12T07:09:52.490Z,95.00
2023-04-12T07:12:19.364Z,94.50
2023-04-12T07:14:46.222Z,94.10
2023-04-12T07:17:13.263Z,93.90
2023-04-12T07:19:41.965Z,94.10
2023-04-12T07:22:08.925Z,94.10
2023-04-12T07:24:35.782Z,93.90
2023-04-12T07:27:02.691Z,93.60
2023-04-12T07:29:29.557Z,93.70
2023-04-12T07:31:56.422Z,92.70
2023-04-12T07:34:24.264Z,92.90
2023-04-12T07:36:51.296Z,92.60
2023-04-12T07:39:18.198Z,92.50
2023-04-12T07:41:46.862Z,92.60
2023-04-12T07:44:13.792Z,92.00
2023-04-12T07:46:41.871Z,91.70
2023-04-12T07:49:10.532Z,91.70
2023-04-12T07:51:37.660Z,91.40
2023-04-12T07:54:05.010Z,91.20
2023-04-12T07:56:35.714Z,91.10
2023-04-12T07:59:02.732Z,90.70
2023-04-12T08:01:30.307Z,90.60
2023-04-12T08:03:57.654Z,90.40
2023-04-12T08:06:25.797Z,90.20
2023-04-12T08:08:54.364Z,89.00
2023-04-12T08:11:21.476Z,89.40
2023-04-12T08:13:48.349Z,89.10
2023-04-12T08:16:15.736Z,90.00
2023-04-12T08:18:42.701Z,88.30
2023-04-12T08:21:09.624Z,89.30
2023-04-12T08:23:36.475Z,89.10
2023-04-12T08:26:03.632Z,89.00
2023-04-12T08:28:31.180Z,88.50
2023-04-12T08:30:59.132Z,87.50
2023-04-12T08:33:26.705Z,87.70
2023-04-12T08:35:53.621Z,87.70
2023-04-12T08:38:25.448Z,87.60
2023-04-12T08:40:58.703Z,87.20
2023-04-12T08:43:29.049Z,85.50
2023-04-12T08:45:58.792Z,85.90
2023-04-12T08:48:27.106Z,85.00
2023-04-12T08:50:57.000Z,83.80
2023-04-12T08:53:23.887Z,84.70
2023-04-12T08:55:51.014Z,83.90
2023-04-12T08:58:18.089Z,84.80
2023-04-12T09:00:46.182Z,83.70
2023-04-12T09:03:13.269Z,82.50
2023-04-12T09:05:40.347Z,83.70
2023-04-12T09:08:07.252Z,84.40
2023-04-12T09:10:38.606Z,83.70
2023-04-12T09:13:06.528Z,82.00
2023-04-12T09:15:34.609Z,81.70
2023-04-12T09:18:08.438Z,80.90
2023-04-12T09:20:35.906Z,82.30
2023-04-12T09:23:26.757Z,79.70
2023-04-12T09:25:53.771Z,80.00
2023-04-12T09:28:24.257Z,79.80
2023-04-12T09:30:56.566Z,78.50
2023-04-12T09:33:39.534Z,78.20
2023-04-12T09:36:14.253Z,78.30
2023-04-12T09:38:43.314Z,78.20
2023-04-12T09:41:26.080Z,75.30
2023-04-12T09:43:53.918Z,74.80
2023-04-12T09:46:20.836Z,74.10
2023-04-12T09:48:55.869Z,74.80
2023-04-12T09:51:32.778Z,75.60
2023-04-12T09:54:05.190Z,76.00
2023-04-12T09:56:37.803Z,73.20
2023-04-12T09:59:07.105Z,75.20
2023-04-12T10:01:39.999Z,74.60
2023-04-12T10:04:09.183Z,71.50
2023-04-12T10:06:41.320Z,71.50
2023-04-12T10:09:08.902Z,70.40
2023-04-12T10:11:37.394Z,70.70
2023-04-12T10:14:06.037Z,70.60
2023-04-12T10:16:35.029Z,68.80
2023-04-12T10:19:05.238Z,68.50
2023-04-12T10:21:32.211Z,65.10
2023-04-12T10:23:59.546Z,66.50
2023-04-12T10:26:27.235Z,66.00
2023-04-12T10:29:33.672Z,66.00
2023-04-12T10:32:24.330Z,67.20
2023-04-12T10:34:58.736Z,67.50
2023-04-12T10:38:04.304Z,66.80
2023-04-12T10:40:33.024Z,64.40
2023-04-12T10:43:28.674Z,64.90
2023-04-12T10:45:55.925Z,63.20
2023-04-12T10:48:52.519Z,63.70
2023-04-12T10:51:30.742Z,64.90
2023-04-12T10:54:07.926Z,63.60
2023-04-12T10:56:35.906Z,63.80
2023-04-12T10:59:07.260Z,65.50
2023-04-12T11:01:41.182Z,63.70
2023-04-12T11:04:20.984Z,62.60
2023-04-12T11:07:02.613Z,61.00
2023-04-12T11:09:48.711Z,60.90
2023-04-12T11:12:28.057Z,60.60
2023-04-12T11:15:01.547Z,59.60
2023-04-12T11:17:42.059Z,58.90
2023-04-12T11:20:13.513Z,59.70
2023-04-12T11:22:41.020Z,59.60
2023-04-12T11:25:09.658Z,59.10
2023-04-12T11:27:38.066Z,59.10
2023-04-12T11:30:05.832Z,59.60
2023-04-12T11:32:36.056Z,58.90
2023-04-12T11:35:03.076Z,58.70
2023-04-12T11:37:35.621Z,59.70
2023-04-12T11:40:05.723Z,59.20
2023-04-12T11:42:33.463Z,59.30
2023-04-12T11:45:06.535Z,59.00
2023-04-12T11:47:45.684Z,59.40
2023-04-12T11:50:12.620Z,59.00
2023-04-12T11:52:41.135Z,58.60
2023-04-12T11:55:11.021Z,58.80
2023-04-12T11:57:39.128Z,58.80
2023-04-12T12:00:08.305Z,58.30
2023-04-12T12:02:52.216Z,58.30
2023-04-12T12:05:24.005Z,57.60
2023-04-12T12:07:52.628Z,57.80
2023-04-12T12:10:37.716Z,57.10
2023-04-12T12:13:14.086Z,57.50
2023-04-12T12:15:45.635Z,57.50
2023-04-12T12:18:12.866Z,56.90
2023-04-12T12:20:50.846Z,57.60
2023-04-12T12:23:32.105Z,56.60
2023-04-12T12:26:16.714Z,57.10
2023-04-12T12:28:53.366Z,57.00
2023-04-12T12:31:22.967Z,56.20
2023-04-12T12:33:53.384Z,56.40
2023-04-12T12:36:21.111Z,56.80
2023-04-12T12:38:49.334Z,55.80
2023-04-12T12:41:19.702Z,55.30
2023-04-12T12:43:46.985Z,56.00
2023-04-12T12:46:14.111Z,55.90
2023-04-12T12:48:42.216Z,55.90
2023-04-12T12:51:10.101Z,56.40
2023-04-12T12:53:37.736Z,56.70
2023-04-12T12:56:05.049Z,57.00
2023-04-12T12:58:32.267Z,57.70
2023-04-12T13:00:59.222Z,56.80
2023-04-12T13:03:26.534Z,56.80
2023-04-12T13:05:53.626Z,56.90
2023-04-12T13:08:20.694Z,56.90
2023-04-12T13:10:47.651Z,57.20
2023-04-12T13:13:14.532Z,57.30
2023-04-12T13:15:41.546Z,56.30
2023-04-12T13:18:08.481Z,56.70
2023-04-12T13:20:35.348Z,55.90
2023-04-12T13:23:02.196Z,55.80
2023-04-12T13:25:29.036Z,55.80
2023-04-12T13:27:56.031Z,56.80
2023-04-12T13:30:22.902Z,56.70
2023-04-12T13:32:49.850Z,56.80
2023-04-12T13:35:16.963Z,57.20
2023-04-12T13:37:43.811Z,57.90
2023-04-12T13:40:10.937Z,58.00
2023-04-12T13:42:37.805Z,58.60
2023-04-12T13:45:05.377Z,57.50
2023-04-12T13:47:33.669Z,57.40
2023-04-12T13:50:03.607Z,58.00
2023-04-12T13:52:30.461Z,58.00
2023-04-12T13:54:57.874Z,57.60
2023-04-12T13:57:24.710Z,57.50
2023-04-12T13:59:51.566Z,57.90
2023-04-12T14:02:18.515Z,58.00
2023-04-12T14:04:53.029Z,58.80
2023-04-12T14:07:20.595Z,59.10
2023-04-12T14:09:48.609Z,59.80
2023-04-12T14:12:15.744Z,59.10
2023-04-12T14:14:42.606Z,59.70
2023-04-12T14:17:09.466Z,60.10
2023-04-12T14:19:36.365Z,60.00
2023-04-12T14:22:03.821Z,60.80
2023-04-12T14:24:31.386Z,60.50
2023-04-12T14:27:00.814Z,59.80
2023-04-12T14:29:27.771Z,59.80
2023-04-12T14:31:54.651Z,60.60
2023-04-12T14:34:21.527Z,60.00
2023-04-12T14:36:48.451Z,59.90
2023-04-12T14:39:16.240Z,60.70
2023-04-12T14:41:43.451Z,60.80
2023-04-12T14:44:10.480Z,61.40
2023-04-12T14:46:37.377Z,60.20
2023-04-12T14:49:04.292Z,60.50
2023-04-12T14:51:32.165Z,61.60
2023-04-12T14:53:59.166Z,61.60
2023-04-12T14:56:30.367Z,61.60
2023-04-12T14:58:58.448Z,61.30
2023-04-12T15:01:25.762Z,61.30
2023-04-12T15:03:53.460Z,60.60
2023-04-12T15:06:23.148Z,59.90
2023-04-12T15:08:57.089Z,60.00
2023-04-12T15:11:26.944Z,60.50
2023-04-12T15:13:54.968Z,60.30
2023-04-12T15:16:22.772Z,60.70
2023-04-12T15:18:51.553Z,61.20
2023-04-12T15:21:18.718Z,61.10
2023-04-12T15:23:46.284Z,61.20
2023-04-12T15:26:14.296Z,61.70
2023-04-12T15:28:41.969Z,61.10
2023-04-12T15:31:09.415Z,60.80
2023-04-12T15:33:37.031Z,60.70
2023-04-12T15:36:04.766Z,60.60
2023-04-12T15:38:31.751Z,61.20
2023-04-12T15:41:02.016Z,61.00
2023-04-12T15:43:29.329Z,61.40
2023-04-12T15:45:56.635Z,61.30
2023-04-12T15:48:25.618Z,60.90
2023-04-12T15:50:55.739Z,60.90
2023-04-12T15:53:27.144Z,61.20
2023-04-12T15:55:57.658Z,61.50
2023-04-12T15:58:26.905Z,61.30
2023-04-12T16:00:54.160Z,61.00
2023-04-12T16:03:23.381Z,61.50
2023-04-12T16:05:54.093Z,61.80
2023-04-12T16:08:22.201Z,61.70
2023-04-12T16:10:50.546Z,62.00
2023-04-12T16:13:18.269Z,61.50
2023-04-12T16:15:45.713Z,61.50
2023-04-12T16:18:12.982Z,60.90
2023-04-12T16:20:42.837Z,61.50
2023-04-12T16:23:09.869Z,61.80
2023-04-12T16:25:36.774Z,61.40
2023-04-12T16:28:03.942Z,61.10
2023-04-12T16:30:35.064Z,60.80
2023-04-12T16:33:02.093Z,60.90
2023-04-12T16:35:29.077Z,60.40
2023-04-12T16:37:56.354Z,60.10
2023-04-12T16:40:24.500Z,60.50
2023-04-12T16:42:51.644Z,60.90
2023-04-12T16:45:18.704Z,61.40
2023-04-12T16:47:47.012Z,60.90
2023-04-12T16:50:14.168Z,60.70
2023-04-12T16:52:41.726Z,60.70
2023-04-12T16:55:12.003Z,60.40
2023-04-12T16:57:44.161Z,60.30
2023-04-12T17:00:20.499Z,60.80
2023-04-12T17:02:50.325Z,60.40
2023-04-12T17:05:18.137Z,60.30
2023-04-12T17:07:50.575Z,60.40
2023-04-12T17:10:19.459Z,60.60
2023-04-12T17:12:48.345Z,60.80
2023-04-12T17:15:17.933Z,60.00
2023-04-12T17:17:50.753Z,60.20
2023-04-12T17:20:20.490Z,59.70
2023-04-12T17:22:48.692Z,60.00
2023-04-12T17:25:16.209Z,60.00
2023-04-12T17:27:44.282Z,60.00
2023-04-12T17:30:12.395Z,60.20
2023-04-12T17:32:40.354Z,60.60
2023-04-12T17:35:08.120Z,60.80
2023-04-12T17:37:36.029Z,61.20
2023-04-12T17:40:05.370Z,61.10
2023-04-12T17:42:32.421Z,61.50
2023-04-12T17:44:59.412Z,61.70
2023-04-12T17:47:26.362Z,62.00
2023-04-12T17:49:53.334Z,62.10
2023-04-12T17:52:20.365Z,62.50
2023-04-12T17:54:47.247Z,63.40
2023-04-12T17:57:14.179Z,63.70
2023-04-12T17:59:41.610Z,64.30
2023-04-12T18:02:08.915Z,65.00
2023-04-12T18:04:36.677Z,66.10
2023-04-12T18:07:04.574Z,66.50
2023-04-12T18:09:31.543Z,66.60
2023-04-12T18:11:58.503Z,67.60
2023-04-12T18:14:25.657Z,69.00
2023-04-12T18:16:52.583Z,70.40
2023-04-12T18:19:19.466Z,70.70
2023-04-12T18:21:48.359Z,71.00
2023-04-12T18:24:16.887Z,71.40
2023-04-12T18:26:45.051Z,71.60
2023-04-12T18:29:14.333Z,73.30
2023-04-12T18:31:41.924Z,74.60
2023-04-12T18:34:09.156Z,74.50
2023-04-12T18:36:39.500Z,74.60
2023-04-12T18:39:07.962Z,76.20
2023-04-12T18:41:34.911Z,75.60
2023-04-12T18:44:01.898Z,75.40
2023-04-12T18:46:29.623Z,76.30
2023-04-12T18:48:56.878Z,76.90
2023-04-12T18:51:23.863Z,77.00
2023-04-12T18:53:51.435Z,77.60
2023-04-12T18:56:23.183Z,77.60
2023-04-12T18:58:56.182Z,77.80
2023-04-12T19:01:25.191Z,78.10
2023-04-12T19:03:52.806Z,78.00
2023-04-12T19:06:19.966Z,78.40
2023-04-12T19:08:46.890Z,78.60
2023-04-12T19:11:13.881Z,78.90
2023-04-12T19:13:40.804Z,78.20
2023-04-12T19:16:08.126Z,78.10
2023-04-12T19:18:35.365Z,78.20
2023-04-12T19:21:03.257Z,78.10
2023-04-12T19:23:30.896Z,78.00
2023-04-12T19:26:00.050Z,78.20
2023-04-12T19:28:27.863Z,78.50
2023-04-12T19:30:57.469Z,78.70
2023-04-12T19:33:24.977Z,78.40
2023-04-12T19:35:52.316Z,78.60
2023-04-12T19:38:21.056Z,78.40
2023-04-12T19:40:48.105Z,78.30
2023-04-12T19:43:15.012Z,78.50
2023-04-12T19:45:42.370Z,78.40
2023-04-12T19:48:09.442Z,78.70
2023-04-12T19:50:36.452Z,78.80
2023-04-12T19:53:03.604Z,78.80
2023-04-12T19:55:30.601Z,79.20
2023-04-12T19:57:58.448Z,79.30
2023-04-12T20:00:25.413Z,79.30
2023-04-12T20:02:54.186Z,79.60
2023-04-12T20:05:23.205Z,79.80
2023-04-12T20:07:52.514Z,79.90
2023-04-12T20:10:20.146Z,80.30
2023-04-12T20:12:47.139Z,80.40
2023-04-12T20:15:14.392Z,80.40
2023-04-12T20:17:43.001Z,80.30
2023-04-12T20:20:12.731Z,80.90
2023-04-12T20:22:41.683Z,80.90
2023-04-12T20:25:10.816Z,81.20
2023-04-12T20:27:39.066Z,81.30
2023-04-12T20:30:08.850Z,81.40
2023-04-12T20:32:36.064Z,81.30
2023-04-12T20:35:06.682Z,81.30
2023-04-12T20:37:33.841Z,81.60
2023-04-12T20:40:00.891Z,81.70
2023-04-12T20:42:27.876Z,81.70
2023-04-12T20:44:54.797Z,82.60
2023-04-12T20:47:22.345Z,81.50
2023-04-12T20:49:50.480Z,81.70
2023-04-12T20:52:18.662Z,81.70
2023-04-12T20:54:45.808Z,81.70
2023-04-12T20:57:13.987Z,81.50
2023-04-12T20:59:41.011Z,81.40
2023-04-12T21:02:09.320Z,81.40
2023-04-12T21:04:36.668Z,81.60
2023-04-12T21:07:04.909Z,80.90
2023-04-12T21:09:31.863Z,80.60
2023-04-12T21:12:02.580Z,80.70
2023-04-12T21:14:29.517Z,80.60
2023-04-12T21:16:56.492Z,80.80
2023-04-12T21:19:23.476Z,80.60
2023-04-12T21:21:51.062Z,80.50
2023-04-12T21:24:18.436Z,80.90
2023-04-12T21:26:54.735Z,80.80
2023-04-12T21:29:21.635Z,81.10
2023-04-12T21:31:48.863Z,80.90
2023-04-12T21:34:17.134Z,81.00
2023-04-12T21:36:44.175Z,81.10
2023-04-12T21:39:11.276Z,81.10
2023-04-12T21:41:38.154Z,81.00
2023-04-12T21:44:05.051Z,80.90
2023-04-12T21:46:31.960Z,80.80
2023-04-12T21:48:59.056Z,80.80
2023-04-12T21:51:26.434Z,80.40
2023-04-12T21:53:53.317Z,80.50
2023-04-12T21:56:20.262Z,80.30
2023-04-12T21:58:47.158Z,81.00
2023-04-12T22:01:14.209Z,80.30
2023-04-12T22:03:43.708Z,80.20
2023-04-12T22:06:11.847Z,79.90
2023-04-12T22:08:42.679Z,79.90
2023-04-12T22:11:11.009Z,79.70
2023-04-12T22:13:41.751Z,79.80
2023-04-12T22:16:13.240Z,79.40
2023-04-12T22:18:41.186Z,79.50
2023-04-12T22:21:08.205Z,79.30
2023-04-12T22:23:38.719Z,79.50
2023-04-12T22:26:07.958Z,79.30
2023-04-12T22:28:37.816Z,79.50
2023-04-12T22:31:08.593Z,79.40
2023-04-12T22:33:36.947Z,79.90
2023-04-12T22:36:05.965Z,80.20
2023-04-12T22:38:37.096Z,80.50
2023-04-12T22:41:04.144Z,81.20
2023-04-12T22:43:42.032Z,81.80
2023-04-12T22:46:15.945Z,83.10
2023-04-12T22:48:48.001Z,84.20
2023-04-12T22:51:15.401Z,85.70
2023-04-12T22:53:43.358Z,87.20
2023-04-12T22:56:11.213Z,87.90
2023-04-12T22:58:40.133Z,89.60
2023-04-12T23:01:07.367Z,90.50
2023-04-12T23:03:34.477Z,90.50
2023-04-12T23:06:02.005Z,91.00
2023-04-12T23:08:29.214Z,91.00
2023-04-12T23:11:02.849Z,91.40
2023-04-12T23:13:33.869Z,91.50
2023-04-12T23:16:03.418Z,91.60
2023-04-12T23:18:30.586Z,91.90
2023-04-12T23:20:57.457Z,92.20
2023-04-12T23:23:27.202Z,92.40
2023-04-12T23:25:55.429Z,92.60
2023-04-12T23:28:24.323Z,92.80
2023-04-12T23:30:51.860Z,92.80
2023-04-12T23:33:20.734Z,93.20
2023-04-12T23:35:52.429Z,93.40
2023-04-12T23:38:34.936Z,93.30
2023-04-12T23:41:03.855Z,93.30
2023-04-12T23:43:32.597Z,93.20
2023-04-12T23:45:59.863Z,93.40
2023-04-12T23:48:27.112Z,93.40
2023-04-12T23:50:54.175Z,93.30
2023-04-12T23:53:21.543Z,93.20
2023-04-12T23:55:52.089Z,93.30
2023-04-12T23:58:20.138Z,93.50
